sensor_id;sensor_type;location;lat;lon;timestamp;pressure;altitude;pressure_sealevel;temperature;humidity
13235;BME280;6683;48.506;9.050;2023-02-12T00:01:02;100090.56;;;5.96;61.39
13235;BME280;6683;48.506;9.050;2023-02-12T00:04:06;100083.53;;;5.96;61.53
13235;BME280;6683;48.506;9.050;2023-02-12T00:07:08;100079.22;;;5.95;61.84
13235;BME280;6683;48.506;9.050;2023-02-12T00:10:11;100072.31;;;5.94;61.76
13235;BME280;6683;48.506;9.050;2023-02-12T00:13:14;100077.66;;;5.93;61.70
13235;BME280;6683;48.506;9.050;2023-02-12T00:16:19;100082.91;;;5.93;62.16
13235;BME280;6683;48.506;9.050;2023-02-12T00:19:23;100078.63;;;5.92;61.70
13235;BME280;6683;48.506;9.050;2023-02-12T00:22:25;100078.38;;;5.95;62.39
13235;BME280;6683;48.506;9.050;2023-02-12T00:25:29;100079.22;;;5.95;61.96
13235;BME280;6683;48.506;9.050;2023-02-12T00:28:32;100082.44;;;5.99;62.41
13235;BME280;6683;48.506;9.050;2023-02-12T00:31:34;100092.72;;;6.02;62.33
13235;BME280;6683;48.506;9.050;2023-02-12T00:34:39;100084.66;;;6.05;62.04
13235;BME280;6683;48.506;9.050;2023-02-12T00:37:41;100086.09;;;6.09;62.29
13235;BME280;6683;48.506;9.050;2023-02-12T00:40:44;100091.34;;;6.09;62.40
13235;BME280;6683;48.506;9.050;2023-02-12T00:43:47;100094.56;;;6.12;62.58
13235;BME280;6683;48.506;9.050;2023-02-12T00:46:50;100091.81;;;6.14;62.56
13235;BME280;6683;48.506;9.050;2023-02-12T00:49:53;100084.69;;;6.16;62.72
13235;BME280;6683;48.506;9.050;2023-02-12T00:52:56;100090.66;;;6.18;62.18
13235;BME280;6683;48.506;9.050;2023-02-12T00:55:59;100089.94;;;6.16;61.99
13235;BME280;6683;48.506;9.050;2023-02-12T00:59:01;100090.97;;;6.13;62.27
13235;BME280;6683;48.506;9.050;2023-02-12T01:02:04;100084.94;;;6.13;62.40
13235;BME280;6683;48.506;9.050;2023-02-12T01:05:09;100097.91;;;6.14;62.36
13235;BME280;6683;48.506;9.050;2023-02-12T01:08:13;100090.91;;;6.15;62.46
13235;BME280;6683;48.506;9.050;2023-02-12T01:11:16;100102.94;;;6.17;62.20
13235;BME280;6683;48.506;9.050;2023-02-12T01:14:18;100100.09;;;6.20;62.61
13235;BME280;6683;48.506;9.050;2023-02-12T01:17:21;100096.41;;;6.23;62.38
13235;BME280;6683;48.506;9.050;2023-02-12T01:20:25;100091.88;;;6.25;62.42
13235;BME280;6683;48.506;9.050;2023-02-12T01:23:27;100090.00;;;6.27;62.79
13235;BME280;6683;48.506;9.050;2023-02-12T01:26:30;100092.50;;;6.28;62.49
13235;BME280;6683;48.506;9.050;2023-02-12T01:29:33;100098.44;;;6.30;62.21
13235;BME280;6683;48.506;9.050;2023-02-12T01:32:35;100089.78;;;6.30;62.68
13235;BME280;6683;48.506;9.050;2023-02-12T01:35:39;100095.75;;;6.32;62.74
13235;BME280;6683;48.506;9.050;2023-02-12T01:38:42;100086.78;;;6.34;62.44
13235;BME280;6683;48.506;9.050;2023-02-12T01:41:45;100100.75;;;6.35;62.26
13235;BME280;6683;48.506;9.050;2023-02-12T01:45:37;100097.53;;;6.31;63.16
13235;BME280;6683;48.506;9.050;2023-02-12T01:48:46;100093.00;;;6.33;63.01
13235;BME280;6683;48.506;9.050;2023-02-12T01:51:54;100095.75;;;6.32;63.13
13235;BME280;6683;48.506;9.050;2023-02-12T01:55:03;100101.81;;;6.32;62.44
13235;BME280;6683;48.506;9.050;2023-02-12T01:58:06;100101.81;;;6.32;62.23
13235;BME280;6683;48.506;9.050;2023-02-12T02:01:15;100099.41;;;6.29;62.83
13235;BME280;6683;48.506;9.050;2023-02-12T02:04:23;100092.50;;;6.28;62.85
13235;BME280;6683;48.506;9.050;2023-02-12T02:07:29;100094.25;;;6.28;62.47
13235;BME280;6683;48.506;9.050;2023-02-12T02:10:31;100095.84;;;6.30;62.92
13235;BME280;6683;48.506;9.050;2023-02-12T02:13:34;100094.78;;;6.33;62.58
13235;BME280;6683;48.506;9.050;2023-02-12T02:17:19;100088.69;;;6.32;62.99
13235;BME280;6683;48.506;9.050;2023-02-12T02:20:48;100091.22;;;6.34;62.66
13235;BME280;6683;48.506;9.050;2023-02-12T02:27:41;100078.09;;;6.34;62.63
13235;BME280;6683;48.506;9.050;2023-02-12T02:30:53;100071.06;;;6.34;62.64
13235;BME280;6683;48.506;9.050;2023-02-12T02:34:05;100078.91;;;6.34;62.69
13235;BME280;6683;48.506;9.050;2023-02-12T02:37:16;100072.00;;;6.33;63.18
13235;BME280;6683;48.506;9.050;2023-02-12T02:40:22;100071.91;;;6.35;63.17
13235;BME280;6683;48.506;9.050;2023-02-12T02:43:29;100067.38;;;6.37;62.45
13235;BME280;6683;48.506;9.050;2023-02-12T02:46:39;100060.56;;;6.34;62.75
13235;BME280;6683;48.506;9.050;2023-02-12T02:49:49;100052.69;;;6.34;62.84
13235;BME280;6683;48.506;9.050;2023-02-12T02:52:56;100062.38;;;6.34;62.57
13235;BME280;6683;48.506;9.050;2023-02-12T02:56:03;100064.16;;;6.33;62.97
13235;BME280;6683;48.506;9.050;2023-02-12T02:59:10;100058.78;;;6.35;63.14
13235;BME280;6683;48.506;9.050;2023-02-12T03:02:20;100067.25;;;6.38;63.14
13235;BME280;6683;48.506;9.050;2023-02-12T03:05:31;100055.81;;;6.39;63.16
13235;BME280;6683;48.506;9.050;2023-02-12T03:08:43;100054.03;;;6.40;62.86
13235;BME280;6683;48.506;9.050;2023-02-12T03:11:52;100058.31;;;6.41;62.98
13235;BME280;6683;48.506;9.050;2023-02-12T03:15:05;100054.75;;;6.42;62.89
13235;BME280;6683;48.506;9.050;2023-02-12T03:18:16;100057.38;;;6.42;62.66
13235;BME280;6683;48.506;9.050;2023-02-12T03:21:28;100060.81;;;6.42;62.56
13235;BME280;6683;48.506;9.050;2023-02-12T03:24:35;100061.56;;;6.44;62.93
13235;BME280;6683;48.506;9.050;2023-02-12T03:27:44;100072.06;;;6.44;63.09
13235;BME280;6683;48.506;9.050;2023-02-12T03:30:53;100064.19;;;6.44;62.72
13235;BME280;6683;48.506;9.050;2023-02-12T03:34:08;100067.75;;;6.43;62.74
13235;BME280;6683;48.506;9.050;2023-02-12T03:37:16;100072.88;;;6.45;62.80
13235;BME280;6683;48.506;9.050;2023-02-12T03:40:27;100068.59;;;6.44;63.09
13235;BME280;6683;48.506;9.050;2023-02-12T03:43:37;100073.94;;;6.42;62.66
13235;BME280;6683;48.506;9.050;2023-02-12T03:46:49;100079.56;;;6.38;63.04
13235;BME280;6683;48.506;9.050;2023-02-12T03:50:05;100076.28;;;6.34;63.10
13235;BME280;6683;48.506;9.050;2023-02-12T03:53:11;100075.47;;;6.34;63.16
13235;BME280;6683;48.506;9.050;2023-02-12T03:56:18;100073.78;;;6.33;63.32
13235;BME280;6683;48.506;9.050;2023-02-12T03:59:24;100075.81;;;6.29;62.74
13235;BME280;6683;48.506;9.050;2023-02-12T04:02:27;100073.19;;;6.29;62.88
13235;BME280;6683;48.506;9.050;2023-02-12T04:05:30;100069.00;;;6.27;63.25
13235;BME280;6683;48.506;9.050;2023-02-12T04:08:33;100069.94;;;6.26;63.16
13235;BME280;6683;48.506;9.050;2023-02-12T04:11:48;100077.81;;;6.26;62.96
13235;BME280;6683;48.506;9.050;2023-02-12T04:15:05;100082.25;;;6.25;63.28
13235;BME280;6683;48.506;9.050;2023-02-12T04:18:16;100083.19;;;6.24;62.92
13235;BME280;6683;48.506;9.050;2023-02-12T04:21:37;100091.16;;;6.23;62.80
13235;BME280;6683;48.506;9.050;2023-02-12T04:24:57;100093.78;;;6.23;63.12
13235;BME280;6683;48.506;9.050;2023-02-12T04:28:10;100094.72;;;6.22;62.91
13235;BME280;6683;48.506;9.050;2023-02-12T04:31:22;100094.00;;;6.20;63.53
13235;BME280;6683;48.506;9.050;2023-02-12T04:34:31;100101.88;;;6.20;63.58
13235;BME280;6683;48.506;9.050;2023-02-12T04:37:40;100101.06;;;6.19;63.20
13235;BME280;6683;48.506;9.050;2023-02-12T04:40:44;100096.75;;;6.18;63.44
13235;BME280;6683;48.506;9.050;2023-02-12T04:43:47;100104.59;;;6.18;63.36
13235;BME280;6683;48.506;9.050;2023-02-12T04:46:50;100100.22;;;6.19;63.41
13235;BME280;6683;48.506;9.050;2023-02-12T04:49:53;100096.88;;;6.17;63.35
13235;BME280;6683;48.506;9.050;2023-02-12T04:52:57;100094.25;;;6.17;63.66
13235;BME280;6683;48.506;9.050;2023-02-12T04:55:59;100098.53;;;6.18;63.16
13235;BME280;6683;48.506;9.050;2023-02-12T04:59:02;100089.84;;;6.17;63.20
13235;BME280;6683;48.506;9.050;2023-02-12T05:02:04;100090.66;;;6.18;63.87
13235;BME280;6683;48.506;9.050;2023-02-12T05:05:07;100094.97;;;6.19;63.51
13235;BME280;6683;48.506;9.050;2023-02-12T05:08:11;100091.38;;;6.20;63.32
13235;BME280;6683;48.506;9.050;2023-02-12T05:11:13;100099.03;;;6.23;64.09
13235;BME280;6683;48.506;9.050;2023-02-12T05:14:15;100106.78;;;6.24;63.70
13235;BME280;6683;48.506;9.050;2023-02-12T05:17:17;100098.06;;;6.24;63.72
13235;BME280;6683;48.506;9.050;2023-02-12T05:20:22;100091.88;;;6.25;64.10
13235;BME280;6683;48.506;9.050;2023-02-12T05:23:27;100090.91;;;6.26;63.95
13235;BME280;6683;48.506;9.050;2023-02-12T05:26:30;100091.75;;;6.26;63.86
13235;BME280;6683;48.506;9.050;2023-02-12T05:29:32;100094.25;;;6.28;64.02
13235;BME280;6683;48.506;9.050;2023-02-12T05:32:35;100087.25;;;6.28;64.15
13235;BME280;6683;48.506;9.050;2023-02-12T05:35:37;100094.06;;;6.31;63.64
13235;BME280;6683;48.506;9.050;2023-02-12T05:38:40;100094.06;;;6.31;63.46
13235;BME280;6683;48.506;9.050;2023-02-12T05:41:43;100092.16;;;6.33;63.69
13235;BME280;6683;48.506;9.050;2023-02-12T05:44:46;100092.41;;;6.30;63.48
13235;BME280;6683;48.506;9.050;2023-02-12T05:47:49;100089.88;;;6.28;63.42
13235;BME280;6683;48.506;9.050;2023-02-12T05:50:51;100092.72;;;6.25;63.60
13235;BME280;6683;48.506;9.050;2023-02-12T05:53:59;100089.72;;;6.19;63.66
13235;BME280;6683;48.506;9.050;2023-02-12T05:57:03;100084.81;;;6.14;63.96
13235;BME280;6683;48.506;9.050;2023-02-12T06:00:09;100086.91;;;6.09;63.75
13235;BME280;6683;48.506;9.050;2023-02-12T06:03:11;100085.97;;;6.10;63.93
13235;BME280;6683;48.506;9.050;2023-02-12T06:06:14;100089.44;;;6.11;63.78
13235;BME280;6683;48.506;9.050;2023-02-12T06:09:18;100085.97;;;6.10;63.46
13235;BME280;6683;48.506;9.050;2023-02-12T06:12:20;100091.09;;;6.12;63.84
13235;BME280;6683;48.506;9.050;2023-02-12T06:15:23;100098.13;;;6.11;63.51
13235;BME280;6683;48.506;9.050;2023-02-12T06:18:25;100085.13;;;6.10;63.88
13235;BME280;6683;48.506;9.050;2023-02-12T06:21:29;100090.50;;;6.08;63.37
13235;BME280;6683;48.506;9.050;2023-02-12T06:24:33;100089.78;;;6.06;63.97
13235;BME280;6683;48.506;9.050;2023-02-12T06:27:36;100091.56;;;6.06;63.78
13235;BME280;6683;48.506;9.050;2023-02-12T06:30:38;100094.41;;;6.03;63.34
13235;BME280;6683;48.506;9.050;2023-02-12T06:33:41;100093.78;;;5.99;63.99
13235;BME280;6683;48.506;9.050;2023-02-12T06:36:45;100095.78;;;5.96;63.65
13235;BME280;6683;48.506;9.050;2023-02-12T06:39:49;100101.16;;;5.94;63.54
13235;BME280;6683;48.506;9.050;2023-02-12T06:42:51;100103.06;;;5.92;63.59
13235;BME280;6683;48.506;9.050;2023-02-12T06:45:53;100101.38;;;5.91;64.31
13235;BME280;6683;48.506;9.050;2023-02-12T06:48:58;100103.25;;;5.89;64.29
13235;BME280;6683;48.506;9.050;2023-02-12T06:52:01;100105.88;;;5.89;63.72
13235;BME280;6683;48.506;9.050;2023-02-12T06:55:05;100106.00;;;5.88;64.37
13235;BME280;6683;48.506;9.050;2023-02-12T06:58:07;100113.75;;;5.89;64.43
13235;BME280;6683;48.506;9.050;2023-02-12T07:01:12;100116.25;;;5.91;64.16
13235;BME280;6683;48.506;9.050;2023-02-12T07:04:17;100120.56;;;5.92;64.17
13235;BME280;6683;48.506;9.050;2023-02-12T07:07:20;100121.28;;;5.94;64.51
13235;BME280;6683;48.506;9.050;2023-02-12T07:10:24;100120.97;;;5.98;64.61
13235;BME280;6683;48.506;9.050;2023-02-12T07:13:26;100117.38;;;5.99;64.38
13235;BME280;6683;48.506;9.050;2023-02-12T07:16:29;100130.34;;;6.01;63.99
13235;BME280;6683;48.506;9.050;2023-02-12T07:19:31;100119.78;;;6.02;64.22
13235;BME280;6683;48.506;9.050;2023-02-12T07:22:35;100121.56;;;6.02;64.39
13235;BME280;6683;48.506;9.050;2023-02-12T07:25:39;100129.31;;;6.03;64.33
13235;BME280;6683;48.506;9.050;2023-02-12T07:28:42;100134.47;;;6.05;63.99
13235;BME280;6683;48.506;9.050;2023-02-12T07:31:44;100134.22;;;6.08;64.40
13235;BME280;6683;48.506;9.050;2023-02-12T07:34:47;100136.63;;;6.11;64.04
13235;BME280;6683;48.506;9.050;2023-02-12T07:37:50;100131.16;;;6.14;64.46
13235;BME280;6683;48.506;9.050;2023-02-12T07:40:54;100130.72;;;6.20;64.25
13235;BME280;6683;48.506;9.050;2023-02-12T07:43:59;100134.06;;;6.22;64.55
13235;BME280;6683;48.506;9.050;2023-02-12T07:47:03;100133.84;;;6.25;64.45
13235;BME280;6683;48.506;9.050;2023-02-12T07:50:06;100127.53;;;6.27;64.50
13235;BME280;6683;48.506;9.050;2023-02-12T07:53:09;100129.72;;;6.33;64.48
13235;BME280;6683;48.506;9.050;2023-02-12T07:56:16;100124.34;;;6.35;64.63
13235;BME280;6683;48.506;9.050;2023-02-12T07:59:19;100118.03;;;6.37;64.14
13235;BME280;6683;48.506;9.050;2023-02-12T08:02:21;100120.44;;;6.40;64.42
13235;BME280;6683;48.506;9.050;2023-02-12T08:05:26;100114.13;;;6.43;64.58
13235;BME280;6683;48.506;9.050;2023-02-12T08:08:29;100120.59;;;6.50;64.49
13235;BME280;6683;48.506;9.050;2023-02-12T08:11:33;100126.97;;;6.59;64.79
13235;BME280;6683;48.506;9.050;2023-02-12T08:14:36;100126.38;;;6.66;64.51
13235;BME280;6683;48.506;9.050;2023-02-12T08:17:38;100131.28;;;6.71;64.49
13235;BME280;6683;48.506;9.050;2023-02-12T08:20:43;100123.78;;;6.77;64.48
13235;BME280;6683;48.506;9.050;2023-02-12T08:23:46;100126.28;;;6.79;64.57
13235;BME280;6683;48.506;9.050;2023-02-12T08:26:52;100126.66;;;6.85;64.86
13235;BME280;6683;48.506;9.050;2023-02-12T08:29:55;100128.59;;;6.94;64.73
13235;BME280;6683;48.506;9.050;2023-02-12T08:32:57;100125.16;;;7.05;64.62
13235;BME280;6683;48.506;9.050;2023-02-12T08:36:02;100121.81;;;7.14;64.35
13235;BME280;6683;48.506;9.050;2023-02-12T08:39:05;100125.53;;;7.22;64.65
13235;BME280;6683;48.506;9.050;2023-02-12T08:42:10;100121.38;;;7.31;64.59
13235;BME280;6683;48.506;9.050;2023-02-12T08:45:12;100110.97;;;7.41;64.23
13235;BME280;6683;48.506;9.050;2023-02-12T08:48:15;100111.31;;;7.47;64.35
13235;BME280;6683;48.506;9.050;2023-02-12T08:51:22;100111.69;;;7.54;64.22
13235;BME280;6683;48.506;9.050;2023-02-12T08:54:27;100105.94;;;7.60;64.33
13235;BME280;6683;48.506;9.050;2023-02-12T08:57:32;100109.50;;;7.70;64.50
13235;BME280;6683;48.506;9.050;2023-02-12T09:00:35;100109.75;;;7.78;64.30
13235;BME280;6683;48.506;9.050;2023-02-12T09:03:38;100114.41;;;7.85;64.34
13235;BME280;6683;48.506;9.050;2023-02-12T09:06:40;100108.50;;;7.93;64.21
13235;BME280;6683;48.506;9.050;2023-02-12T09:09:43;100092.84;;;8.02;64.31
13235;BME280;6683;48.506;9.050;2023-02-12T09:12:47;100094.72;;;8.12;64.50
13235;BME280;6683;48.506;9.050;2023-02-12T09:15:49;100093.97;;;8.21;64.17
13235;BME280;6683;48.506;9.050;2023-02-12T09:18:52;100097.81;;;8.28;64.15
13235;BME280;6683;48.506;9.050;2023-02-12T09:21:55;100104.00;;;8.38;64.14
13235;BME280;6683;48.506;9.050;2023-02-12T09:24:58;100102.53;;;8.45;63.89
13235;BME280;6683;48.506;9.050;2023-02-12T09:28:02;100102.84;;;8.51;63.83
13235;BME280;6683;48.506;9.050;2023-02-12T09:31:05;100106.66;;;8.58;63.88
13235;BME280;6683;48.506;9.050;2023-02-12T09:34:08;100106.97;;;8.65;63.78
13235;BME280;6683;48.506;9.050;2023-02-12T09:37:11;100112.56;;;8.71;63.84
13235;BME280;6683;48.506;9.050;2023-02-12T09:40:20;100112.19;;;8.76;64.10
13235;BME280;6683;48.506;9.050;2023-02-12T09:43:32;100111.53;;;8.83;63.84
13235;BME280;6683;48.506;9.050;2023-02-12T09:46:45;100103.59;;;8.95;64.01
13235;BME280;6683;48.506;9.050;2023-02-12T09:50:05;100107.94;;;9.05;63.87
13235;BME280;6683;48.506;9.050;2023-02-12T09:53:15;100110.47;;;9.16;63.65
13235;BME280;6683;48.506;9.050;2023-02-12T09:56:20;100103.97;;;9.20;63.58
13235;BME280;6683;48.506;9.050;2023-02-12T09:59:32;100109.44;;;9.28;63.79
13235;BME280;6683;48.506;9.050;2023-02-12T10:02:36;100102.69;;;9.35;63.60
13235;BME280;6683;48.506;9.050;2023-02-12T10:05:42;100102.72;;;9.45;63.58
13235;BME280;6683;48.506;9.050;2023-02-12T10:09:05;100106.09;;;9.56;63.51
13235;BME280;6683;48.506;9.050;2023-02-12T10:12:18;100112.22;;;9.66;63.65
13235;BME280;6683;48.506;9.050;2023-02-12T10:15:34;100107.81;;;9.77;63.30
13235;BME280;6683;48.506;9.050;2023-02-12T10:19:07;100104.38;;;9.86;63.50
13235;BME280;6683;48.506;9.050;2023-02-12T10:22:22;100102.72;;;9.94;63.28
13235;BME280;6683;48.506;9.050;2023-02-12T10:25:30;100101.94;;;10.03;63.32
13235;BME280;6683;48.506;9.050;2023-02-12T10:28:40;100095.25;;;10.09;63.23
13235;BME280;6683;48.506;9.050;2023-02-12T10:31:48;100100.72;;;10.17;63.11
13235;BME280;6683;48.506;9.050;2023-02-12T10:34:52;100097.94;;;10.28;62.95
13235;BME280;6683;48.506;9.050;2023-02-12T10:38:01;100089.75;;;10.40;62.89
13235;BME280;6683;48.506;9.050;2023-02-12T10:41:06;100087.66;;;10.54;62.77
13235;BME280;6683;48.506;9.050;2023-02-12T10:44:10;100090.69;;;10.68;62.74
13235;BME280;6683;48.506;9.050;2023-02-12T10:47:19;100079.16;;;10.79;62.60
13235;BME280;6683;48.506;9.050;2023-02-12T10:50:30;100074.41;;;10.92;62.43
13235;BME280;6683;48.506;9.050;2023-02-12T10:53:39;100072.97;;;11.07;62.62
13235;BME280;6683;48.506;9.050;2023-02-12T10:56:42;100068.91;;;11.22;62.21
13235;BME280;6683;48.506;9.050;2023-02-12T11:04:20;100063.41;;;11.60;62.14
13235;BME280;6683;48.506;9.050;2023-02-12T11:07:28;100063.41;;;11.70;61.53
13235;BME280;6683;48.506;9.050;2023-02-12T11:10:47;100059.78;;;11.71;61.69
13235;BME280;6683;48.506;9.050;2023-02-12T11:13:56;100057.44;;;11.68;61.40
13235;BME280;6683;48.506;9.050;2023-02-12T11:16:59;100058.94;;;11.70;61.52
13235;BME280;6683;48.506;9.050;2023-02-12T11:20:24;100053.06;;;11.76;61.79
13235;BME280;6683;48.506;9.050;2023-02-12T11:23:30;100049.97;;;11.81;61.22
13235;BME280;6683;48.506;9.050;2023-02-12T11:26:33;100053.16;;;11.84;61.32
13235;BME280;6683;48.506;9.050;2023-02-12T11:29:36;100054.88;;;11.93;61.28
13235;BME280;6683;48.506;9.050;2023-02-12T11:32:38;100049.38;;;12.04;61.30
13235;BME280;6683;48.506;9.050;2023-02-12T11:35:51;100040.56;;;12.14;61.29
13235;BME280;6683;48.506;9.050;2023-02-12T11:38:56;100036.16;;;12.22;60.93
13235;BME280;6683;48.506;9.050;2023-02-12T11:42:01;100044.31;;;12.29;60.71
13235;BME280;6683;48.506;9.050;2023-02-12T11:45:05;100036.31;;;12.38;61.03
13235;BME280;6683;48.506;9.050;2023-02-12T11:48:16;100043.06;;;12.58;60.65
13235;BME280;6683;48.506;9.050;2023-02-12T11:51:26;100025.81;;;12.72;60.39
13235;BME280;6683;48.506;9.050;2023-02-12T11:54:36;100024.72;;;12.82;60.33
13235;BME280;6683;48.506;9.050;2023-02-12T11:57:44;100028.97;;;13.01;60.29
13235;BME280;6683;48.506;9.050;2023-02-12T12:00:53;100021.41;;;13.48;59.96
13235;BME280;6683;48.506;9.050;2023-02-12T12:04:02;100015.25;;;13.89;58.64
13235;BME280;6683;48.506;9.050;2023-02-12T12:07:13;100020.88;;;14.02;58.27
13235;BME280;6683;48.506;9.050;2023-02-12T12:10:24;100008.94;;;13.98;57.85
13235;BME280;6683;48.506;9.050;2023-02-12T12:13:36;100012.63;;;14.13;58.29
13235;BME280;6683;48.506;9.050;2023-02-12T12:16:46;100007.13;;;14.79;57.62
13235;BME280;6683;48.506;9.050;2023-02-12T12:20:13;100009.28;;;15.39;57.01
13235;BME280;6683;48.506;9.050;2023-02-12T12:23:23;100004.97;;;16.44;55.72
13235;BME280;6683;48.506;9.050;2023-02-12T12:26:28;99994.69;;;17.22;54.24
13235;BME280;6683;48.506;9.050;2023-02-12T12:29:43;99996.16;;;17.39;53.45
13235;BME280;6683;48.506;9.050;2023-02-12T12:32:50;99992.03;;;17.51;52.68
13235;BME280;6683;48.506;9.050;2023-02-12T12:36:26;99983.25;;;18.14;51.56
13235;BME280;6683;48.506;9.050;2023-02-12T12:39:35;99973.28;;;19.06;51.09
13235;BME280;6683;48.506;9.050;2023-02-12T12:43:12;99975.53;;;20.04;49.63
13235;BME280;6683;48.506;9.050;2023-02-12T12:46:29;99968.38;;;20.63;48.45
13235;BME280;6683;48.506;9.050;2023-02-12T12:49:53;99968.91;;;20.98;47.31
13235;BME280;6683;48.506;9.050;2023-02-12T12:53:27;99961.56;;;20.67;46.66
13235;BME280;6683;48.506;9.050;2023-02-12T12:56:47;99962.88;;;19.78;47.75
13235;BME280;6683;48.506;9.050;2023-02-12T13:00:09;99959.81;;;18.93;48.66
13235;BME280;6683;48.506;9.050;2023-02-12T13:03:57;99960.03;;;17.94;49.98
13235;BME280;6683;48.506;9.050;2023-02-12T13:07:20;99966.16;;;17.23;51.72
13235;BME280;6683;48.506;9.050;2023-02-12T13:10:33;99957.25;;;16.72;52.17
13235;BME280;6683;48.506;9.050;2023-02-12T13:13:43;99963.84;;;16.24;52.72
13235;BME280;6683;48.506;9.050;2023-02-12T13:16:50;99960.94;;;15.88;52.81
13235;BME280;6683;48.506;9.050;2023-02-12T13:20:03;99965.47;;;15.57;53.35
13235;BME280;6683;48.506;9.050;2023-02-12T13:23:22;99963.25;;;15.30;54.02
13235;BME280;6683;48.506;9.050;2023-02-12T13:26:38;99946.06;;;15.10;54.01
13235;BME280;6683;48.506;9.050;2023-02-12T13:29:50;99940.97;;;14.84;54.29
13235;BME280;6683;48.506;9.050;2023-02-12T13:33:04;99949.69;;;14.62;54.57
13235;BME280;6683;48.506;9.050;2023-02-12T13:36:11;99939.75;;;14.40;54.90
13235;BME280;6683;48.506;9.050;2023-02-12T13:39:24;99935.75;;;14.20;55.26
13235;BME280;6683;48.506;9.050;2023-02-12T13:42:41;99935.25;;;14.00;55.43
13235;BME280;6683;48.506;9.050;2023-02-12T13:45:51;99941.41;;;13.85;55.67
13235;BME280;6683;48.506;9.050;2023-02-12T13:49:09;99934.72;;;13.64;55.80
13235;BME280;6683;48.506;9.050;2023-02-12T13:52:25;99935.53;;;13.49;56.20
13235;BME280;6683;48.506;9.050;2023-02-12T13:55:35;99937.50;;;13.39;56.33
13235;BME280;6683;48.506;9.050;2023-02-12T13:58:51;99934.13;;;13.29;56.57
13235;BME280;6683;48.506;9.050;2023-02-12T14:01:55;99933.81;;;13.24;56.64
13235;BME280;6683;48.506;9.050;2023-02-12T14:04:59;99928.47;;;13.16;56.96
13235;BME280;6683;48.506;9.050;2023-02-12T14:08:04;99926.47;;;13.10;56.95
13235;BME280;6683;48.506;9.050;2023-02-12T14:11:10;99926.94;;;13.05;57.30
13235;BME280;6683;48.506;9.050;2023-02-12T14:14:15;99930.03;;;13.01;57.17
13235;BME280;6683;48.506;9.050;2023-02-12T14:17:53;99920.38;;;12.92;57.56
13235;BME280;6683;48.506;9.050;2023-02-12T14:21:41;99921.84;;;12.86;57.78
13235;BME280;6683;48.506;9.050;2023-02-12T14:24:51;99912.56;;;12.82;57.98
13235;BME280;6683;48.506;9.050;2023-02-12T14:27:55;99907.44;;;12.80;57.96
13235;BME280;6683;48.506;9.050;2023-02-12T14:31:39;99912.19;;;12.77;58.22
13235;BME280;6683;48.506;9.050;2023-02-12T14:34:43;99899.28;;;12.74;58.10
13235;BME280;6683;48.506;9.050;2023-02-12T14:37:46;99899.41;;;12.72;58.28
13235;BME280;6683;48.506;9.050;2023-02-12T14:40:49;99895.28;;;12.70;58.12
13235;BME280;6683;48.506;9.050;2023-02-12T14:44:45;99892.94;;;12.67;58.33
13235;BME280;6683;48.506;9.050;2023-02-12T14:47:49;99888.66;;;12.66;58.32
13235;BME280;6683;48.506;9.050;2023-02-12T14:50:54;99884.31;;;12.65;58.31
13235;BME280;6683;48.506;9.050;2023-02-12T14:53:58;99880.84;;;12.64;58.45
13235;BME280;6683;48.506;9.050;2023-02-12T14:57:05;99889.13;;;12.61;58.42
13235;BME280;6683;48.506;9.050;2023-02-12T15:00:22;99886.78;;;12.58;58.44
13235;BME280;6683;48.506;9.050;2023-02-12T15:03:33;99885.25;;;12.56;58.76
13235;BME280;6683;48.506;9.050;2023-02-12T15:06:48;99881.13;;;12.53;58.88
13235;BME280;6683;48.506;9.050;2023-02-12T15:09:57;99883.13;;;12.51;58.48
13235;BME280;6683;48.506;9.050;2023-02-12T15:13:17;99886.91;;;12.49;58.88
13235;BME280;6683;48.506;9.050;2023-02-12T15:16:33;99886.22;;;12.47;58.65
13235;BME280;6683;48.506;9.050;2023-02-12T15:19:41;99882.22;;;12.43;58.70
13235;BME280;6683;48.506;9.050;2023-02-12T15:22:47;99888.34;;;12.43;59.07
13235;BME280;6683;48.506;9.050;2023-02-12T15:25:50;99892.00;;;12.42;58.62
13235;BME280;6683;48.506;9.050;2023-02-12T15:28:52;99892.16;;;12.41;58.80
13235;BME280;6683;48.506;9.050;2023-02-12T15:31:57;99899.56;;;12.37;58.81
13235;BME280;6683;48.506;9.050;2023-02-12T15:35:00;99900.72;;;12.35;58.97
13235;BME280;6683;48.506;9.050;2023-02-12T15:38:05;99895.06;;;12.30;59.28
13235;BME280;6683;48.506;9.050;2023-02-12T15:41:26;99898.00;;;12.27;59.28
13235;BME280;6683;48.506;9.050;2023-02-12T15:44:31;99901.94;;;12.23;59.21
13235;BME280;6683;48.506;9.050;2023-02-12T15:47:35;99896.13;;;12.19;59.14
13235;BME280;6683;48.506;9.050;2023-02-12T15:50:49;99891.47;;;12.13;59.45
13235;BME280;6683;48.506;9.050;2023-02-12T15:53:53;99890.97;;;12.10;59.22
13235;BME280;6683;48.506;9.050;2023-02-12T15:56:57;99892.09;;;12.07;59.34
13235;BME280;6683;48.506;9.050;2023-02-12T16:00:06;99891.03;;;12.00;59.64
13235;BME280;6683;48.506;9.050;2023-02-12T16:03:20;99895.81;;;11.96;59.31
13235;BME280;6683;48.506;9.050;2023-02-12T16:06:25;99898.06;;;11.91;59.34
13235;BME280;6683;48.506;9.050;2023-02-12T16:09:32;99903.16;;;11.85;59.44
13235;BME280;6683;48.506;9.050;2023-02-12T16:12:37;99900.16;;;11.80;59.43
13235;BME280;6683;48.506;9.050;2023-02-12T16:15:41;99905.22;;;11.73;59.56
13235;BME280;6683;48.506;9.050;2023-02-12T16:18:43;99899.41;;;11.70;59.47
13235;BME280;6683;48.506;9.050;2023-02-12T16:21:49;99899.13;;;11.63;59.71
13235;BME280;6683;48.506;9.050;2023-02-12T16:24:55;99903.19;;;11.58;59.77
13235;BME280;6683;48.506;9.050;2023-02-12T16:28:00;99909.78;;;11.54;59.63
13235;BME280;6683;48.506;9.050;2023-02-12T16:31:10;99904.41;;;11.46;60.33
13235;BME280;6683;48.506;9.050;2023-02-12T16:34:28;99906.00;;;11.39;59.88
13235;BME280;6683;48.506;9.050;2023-02-12T16:37:47;99902.44;;;11.30;60.27
13235;BME280;6683;48.506;9.050;2023-02-12T16:41:22;99903.34;;;11.21;59.97
13235;BME280;6683;48.506;9.050;2023-02-12T16:44:27;99909.22;;;11.15;60.42
13235;BME280;6683;48.506;9.050;2023-02-12T16:47:31;99908.13;;;11.08;60.39
13235;BME280;6683;48.506;9.050;2023-02-12T16:50:36;99912.38;;;11.01;60.46
13235;BME280;6683;48.506;9.050;2023-02-12T16:53:40;99920.03;;;10.94;60.65
13235;BME280;6683;48.506;9.050;2023-02-12T16:56:48;99919.09;;;10.86;60.42